Airfield :







YOU CAN JOIN US ON...

 
LOGIN :

Register | Disclaimer

   EN    FR    IT 

 









Legend :    VFR   Marginal VFR   IFR   Intensive IFR   Very Intensive IFR
Visi :
Ceiling :
>= 8 km
>= 3000ft
5 to 8 km
1000 to 3000 ft
1500m to 5 km
500 to 1000 ft
800 to 1500m
200 to 500 ft
< 800m
< 200 ft
Symbols :   Thunderstorms  Fog  Heavy snow  Heavy precipitations  Wind > 20 kt







- Airport Elevation : 534 ft
- IATA code : PQI


KPQI - Northern Maine Regional Arpt At Presque Isle

CURRENT METAR :
  • 192356Z AUTO 08010KT 10SM OVC024 11/08 A3017 RMK AO2 RAB01E20 SLP265 P0000 60001 T01060078 10139 20106 51020

EXPIRED METARs :
  • 192256Z AUTO 36007KT 8SM BKN020 OVC026 11/10 A3015 RMK AO2 RAB04E28 SLP257 P0000 T01110100
  • 192208Z AUTO 02007KT 6SM -RA BR FEW011 SCT018 OVC028 11/10 A3014 RMK AO2 RAB04 P0000
  • 192156Z AUTO 01006KT 10SM SCT010 SCT023 OVC030 12/11 A3014 RMK AO2 RAE50 SLP252 P0001 T01170106
  • 192150Z AUTO 01005KT 10SM SCT010 SCT023 OVC030 12/11 A3014 RMK AO2 RAE50 P0001
  • 192144Z AUTO 02004KT 10SM -RA BKN010 BKN019 OVC026 12/11 A3013 RMK AO2 CIG 009V013 P0001
  • 192131Z AUTO 04008KT 6SM -RA BR FEW012 BKN026 OVC038 12/11 A3013 RMK AO2 P0001

TAF KPQI
Valid from the 20 at 00:00 until the 21 at 00:00 UTC


192320Z 2000/2024 03005KT P6SM OVC022
TEMPO 2000/2004 4SM -DZ OVC014
FM200400 06003KT P6SM BKN028
FM201500 25003KT P6SM BKN030
FM201800 27003KT P6SM BKN035
FM202000 VRB02KT P6SM BKN040
FM202200 VRB02KT P6SM SCT050
KZBW FIR / North America



MET'MAP, your aeronautical weather chart ! - Copyright ORBIFLY December 2007 - Disclaimer

ORBIFLY MET'MAP TEAM :

Programming & Development : Alexandra Zaïnal
Concept & Development : Baudouin d'Aumeries
Co-Development & Prog : Marc-Olivier Méhu
Technical & hardware support : Manuel Goepfert

Contact : metmap@orbifly.com




SOURCES & CREDITS :

   NOAA